Time;durP1;ratioP1;P1;durP2;ratioP2;P2;SDS_P1;SDS_P2;PMS_P1;PMS_P2;Temp;Humidity;BMP_temperature;BMP_pressure;BME280_temperature;BME280_humidity;BME280_pressure;Samples;Min_cycle;Max_cycle;Signal;HPM_P1;HPM_P2
2021/06/17 00:01:56;;;;;;;12.35;10.45;;;;;;;22.36;60.27;100410.72;4971218;28;97285;-86
2021/06/17 00:04:21;;;;;;;15.32;10.73;;;;;;;22.27;60.52;100414.16;4956381;28;98284;-88
2021/06/17 00:06:47;;;;;;;12.48;10.13;;;;;;;22.22;60.69;100405.66;4942875;28;100202;-93
2021/06/17 00:09:13;;;;;;;15.75;10.43;;;;;;;22.20;60.85;100402.28;4967461;28;96601;-93
2021/06/17 00:11:38;;;;;;;13.15;11.02;;;;;;;22.25;60.63;100401.88;4956109;28;96793;-93
2021/06/17 00:14:04;;;;;;;15.90;10.25;;;;;;;22.10;61.05;100407.47;4941756;28;101741;-93
2021/06/17 00:16:30;;;;;;;11.93;10.65;;;;;;;22.08;60.97;100404.09;4957399;28;96863;-93
2021/06/17 00:18:55;;;;;;;12.70;10.20;;;;;;;22.11;60.96;100403.00;4958820;28;96638;-86
2021/06/17 00:21:21;;;;;;;16.02;11.07;;;;;;;22.00;61.43;100411.03;4942379;28;97042;-91
2021/06/17 00:23:46;;;;;;;16.75;10.85;;;;;;;21.99;61.28;100412.88;4963380;28;101613;-93
2021/06/17 00:26:12;;;;;;;17.13;10.57;;;;;;;22.05;61.14;100409.69;4953344;28;101007;-93
2021/06/17 00:28:37;;;;;;;11.98;10.30;;;;;;;21.92;61.38;100409.81;4942362;28;97119;-93
2021/06/17 00:31:03;;;;;;;17.10;10.63;;;;;;;21.97;61.42;100417.47;4941941;28;96679;-93
2021/06/17 00:33:29;;;;;;;13.13;10.77;;;;;;;21.90;61.48;100411.78;4969759;28;98478;-93
2021/06/17 00:35:54;;;;;;;13.57;10.75;;;;;;;21.94;61.16;100407.03;4994114;28;96923;-85
2021/06/17 00:38:20;;;;;;;12.77;10.38;;;;;;;21.85;61.72;100418.47;4974296;28;96760;-92
2021/06/17 00:40:46;;;;;;;18.15;10.93;;;;;;;21.82;61.75;100414.22;4956385;28;97017;-93
2021/06/17 00:43:11;;;;;;;14.35;10.10;;;;;;;21.74;62.11;100413.97;4977206;28;101138;-93
2021/06/17 00:45:41;;;;;;;17.63;10.85;;;;;;;21.76;61.77;100411.16;4961718;28;99682;-93
2021/06/17 00:48:08;;;;;;;13.38;10.48;;;;;;;21.74;61.96;100411.28;4929024;28;97098;-93
2021/06/17 00:50:38;;;;;;;19.60;11.38;;;;;;;21.68;62.26;100409.94;4959162;28;96889;-94
2021/06/17 00:53:08;;;;;;;15.98;11.13;;;;;;;21.67;62.12;100415.41;4954796;28;100563;-93
2021/06/17 00:55:33;;;;;;;12.50;10.18;;;;;;;21.56;62.47;100402.91;4941924;28;101521;-94
2021/06/17 00:57:59;;;;;;;15.25;10.48;;;;;;;21.62;62.35;100405.09;4941018;28;96712;-92
2021/06/17 01:00:25;;;;;;;16.20;11.23;;;;;;;21.56;62.47;100416.28;4947898;28;96927;-94
2021/06/17 01:02:50;;;;;;;16.85;12.38;;;;;;;21.63;62.14;100411.28;4945659;28;98280;-92
2021/06/17 01:05:20;;;;;;;16.20;10.35;;;;;;;21.57;62.54;100409.09;4981752;28;100191;-94
2021/06/17 01:07:55;;;;;;;17.02;11.05;;;;;;;21.47;62.77;100406.31;4959552;28;97175;-93
2021/06/17 01:10:31;;;;;;;15.45;11.23;;;;;;;21.45;62.68;100413.59;4975669;28;96797;-92
2021/06/17 01:13:19;;;;;;;12.75;9.88;;;;;;;21.46;62.86;100416.13;4962514;28;100648;-85
2021/06/17 01:15:49;;;;;;;15.48;11.77;;;;;;;21.43;62.80;100411.00;4940440;28;98570;-93
2021/06/17 01:18:16;;;;;;;16.70;10.85;;;;;;;21.44;62.75;100414.56;4940534;28;96664;-93
2021/06/17 01:20:56;;;;;;;14.75;9.98;;;;;;;21.31;63.46;100421.78;4957563;28;96901;-94
2021/06/17 01:23:49;;;;;;;14.73;10.80;;;;;;;21.30;63.00;100412.94;4980601;28;97610;-88
2021/06/17 01:26:33;;;;;;;13.95;11.00;;;;;;;21.32;63.02;100408.31;4950333;28;100388;-93
2021/06/17 01:29:00;;;;;;;14.30;10.57;;;;;;;21.38;62.89;100401.66;4960613;28;96745;-85
2021/06/17 01:31:28;;;;;;;13.40;10.90;;;;;;;21.31;63.16;100409.28;4961575;28;97053;-94
2021/06/17 01:33:55;;;;;;;12.50;9.77;;;;;;;21.22;63.24;100410.84;4960710;28;100977;-93
2021/06/17 01:36:37;;;;;;;14.30;11.00;;;;;;;21.18;63.33;100405.88;4950440;28;101343;-87
2021/06/17 01:39:06;;;;;;;13.63;10.57;;;;;;;21.19;63.21;100412.91;4931733;28;96786;-93
2021/06/17 01:41:35;;;;;;;14.02;10.38;;;;;;;21.20;63.14;100407.44;4976763;28;97347;-93
2021/06/17 01:44:04;;;;;;;12.48;10.30;;;;;;;21.17;63.27;100405.00;4960303;28;98129;-92
2021/06/17 01:46:31;;;;;;;14.30;10.93;;;;;;;21.25;62.87;100407.94;4977405;28;98318;-93
2021/06/17 01:48:58;;;;;;;14.95;11.13;;;;;;;21.15;63.29;100404.28;4967572;28;97129;-86
2021/06/17 01:51:25;;;;;;;13.55;10.45;;;;;;;21.11;63.45;100407.28;4909618;28;96768;-92
2021/06/17 01:53:51;;;;;;;14.07;10.75;;;;;;;21.06;63.51;100414.78;4934023;28;101227;-93
2021/06/17 01:56:23;;;;;;;14.50;10.68;;;;;;;21.05;63.45;100413.09;4943860;28;101325;-93
2021/06/17 01:58:57;;;;;;;11.65;10.48;;;;;;;21.14;63.25;100407.06;4944286;28;96943;-94
2021/06/17 02:01:29;;;;;;;12.13;10.25;;;;;;;21.08;63.14;100416.38;4926414;28;96794;-92
2021/06/17 02:03:56;;;;;;;16.05;13.73;;;;;;;21.02;63.63;100417.69;4949005;28;100040;-93
2021/06/17 02:06:21;;;;;;;19.70;13.80;;;;;;;20.94;63.65;100421.91;4940124;28;100516;-86
2021/06/17 02:08:51;;;;;;;15.50;13.40;;;;;;;20.90;63.94;100417.78;4924780;28;97009;-93
2021/06/17 02:11:18;;;;;;;18.58;13.13;;;;;;;20.97;63.68;100419.88;4940186;28;97522;-93
2021/06/17 02:13:43;;;;;;;17.02;12.38;;;;;;;20.86;64.02;100419.00;4956922;28;97642;-93
2021/06/17 02:16:10;;;;;;;14.82;11.20;;;;;;;20.95;63.64;100415.63;4939892;28;101154;-94
2021/06/17 02:18:36;;;;;;;15.95;11.25;;;;;;;20.81;63.93;100411.34;4940574;28;97310;-94
2021/06/17 02:21:04;;;;;;;16.80;10.75;;;;;;;20.84;64.00;100410.25;4926656;28;96935;-92
2021/06/17 02:23:32;;;;;;;13.43;11.48;;;;;;;20.84;63.64;100407.59;4968850;28;97151;-93
2021/06/17 02:25:59;;;;;;;17.30;11.20;;;;;;;20.76;64.10;100411.66;4923836;28;101103;-81
2021/06/17 02:28:27;;;;;;;14.18;11.15;;;;;;;20.89;63.42;100406.28;4955734;28;96701;-94
2021/06/17 02:30:59;;;;;;;14.55;12.05;;;;;;;20.95;63.28;100408.47;4964372;28;97135;-93
2021/06/17 02:33:26;;;;;;;14.43;11.18;;;;;;;20.73;63.98;100408.38;4945718;28;101645;-93
2021/06/17 02:35:52;;;;;;;15.27;11.32;;;;;;;20.67;64.16;100409.69;4941877;28;100161;-87
2021/06/17 02:38:24;;;;;;;11.98;10.50;;;;;;;20.70;64.09;100408.63;4940784;28;96692;-92
2021/06/17 02:40:49;;;;;;;;;;;;;;;20.61;64.29;100417.31;4969850;28;96754;-89
2021/06/17 02:43:17;;;;;;;13.02;10.55;;;;;;;20.52;64.66;100414.34;4940274;28;100862;-91
2021/06/17 02:45:43;;;;;;;14.32;10.98;;;;;;;20.54;64.38;100416.94;4925076;28;100289;-91
2021/06/17 02:48:09;;;;;;;14.38;11.95;;;;;;;20.58;64.35;100411.22;4926999;28;96926;-91
2021/06/17 02:50:35;;;;;;;17.30;11.90;;;;;;;20.52;64.55;100411.69;4957475;28;96992;-91
2021/06/17 02:53:01;;;;;;;16.85;11.70;;;;;;;20.54;64.49;100412.44;4957747;28;98611;-88
2021/06/17 02:55:26;;;;;;;16.17;11.55;;;;;;;20.46;64.55;100408.59;4940292;28;101638;-91
2021/06/17 02:58:01;;;;;;;16.42;11.75;;;;;;;20.55;64.65;100414.13;4973691;28;97226;-90
2021/06/17 03:00:30;;;;;;;13.85;10.48;;;;;;;20.55;64.16;100416.78;4951058;28;96935;-91
2021/06/17 03:03:02;;;;;;;13.73;10.85;;;;;;;20.56;64.38;100420.31;4960113;28;98070;-91
2021/06/17 03:05:54;;;;;;;12.77;11.13;;;;;;;20.50;64.08;100416.25;4977225;28;98015;-91
2021/06/17 03:08:26;;;;;;;15.25;11.95;;;;;;;20.59;63.83;100420.06;4956543;28;96695;-91
2021/06/17 03:10:55;;;;;;;23.38;11.45;;;;;;;20.54;64.12;100428.44;4947529;28;96897;-88
2021/06/17 03:13:24;;;;;;;19.75;12.23;;;;;;;20.72;63.54;100428.03;4959089;28;100430;-91
2021/06/17 03:15:50;;;;;;;15.25;11.40;;;;;;;20.47;64.19;100418.28;4976150;28;98312;-92
2021/06/17 03:18:18;;;;;;;17.80;11.55;;;;;;;20.54;64.18;100430.25;4959128;28;97020;-92
2021/06/17 03:20:45;;;;;;;19.90;12.20;;;;;;;20.64;63.71;100425.94;4944073;28;96975;-92
2021/06/17 03:23:17;;;;;;;14.90;11.82;;;;;;;20.64;63.76;100428.59;4976699;28;97426;-93
2021/06/17 03:25:48;;;;;;;16.05;11.32;;;;;;;20.72;63.42;100428.88;4940132;28;99657;-92
2021/06/17 03:28:14;;;;;;;14.90;12.48;;;;;;;20.60;63.77;100429.78;4947161;28;97246;-93
2021/06/17 03:30:45;;;;;;;15.25;11.77;;;;;;;20.67;63.62;100430.19;4939152;28;97148;-92
2021/06/17 03:33:11;;;;;;;13.93;12.35;;;;;;;20.73;63.47;100427.06;4951953;28;100367;-93
2021/06/17 03:35:39;;;;;;;18.23;12.43;;;;;;;20.66;63.54;100426.69;4940122;28;101478;-94
2021/06/17 03:38:05;;;;;;;19.90;13.20;;;;;;;20.64;63.83;100425.09;4947789;28;96739;-90
2021/06/17 03:40:31;;;;;;;16.27;12.30;;;;;;;20.71;63.35;100427.19;4968799;28;96859;-90
2021/06/17 03:42:57;;;;;;;17.17;11.30;;;;;;;20.82;63.13;100433.53;4931771;28;100613;-91
2021/06/17 03:45:24;;;;;;;15.65;12.55;;;;;;;20.84;62.78;100420.94;4955435;28;101574;-89
2021/06/17 03:47:50;;;;;;;20.48;13.07;;;;;;;20.84;62.90;100421.78;4940419;28;96962;-87
2021/06/17 03:50:18;;;;;;;15.63;13.02;;;;;;;20.76;63.11;100419.66;4970590;28;96898;-88
2021/06/17 03:52:45;;;;;;;18.77;12.65;;;;;;;20.82;62.93;100420.19;4945437;28;101636;-87
2021/06/17 03:55:15;;;;;;;16.40;12.50;;;;;;;20.85;62.89;100415.47;4937050;28;101295;-89
2021/06/17 03:57:42;;;;;;;25.05;13.07;;;;;;;21.00;62.37;100417.00;4956622;28;96741;-88
2021/06/17 04:00:09;;;;;;;19.27;12.52;;;;;;;21.00;62.51;100418.78;4956394;28;96954;-88
2021/06/17 04:02:38;;;;;;;14.30;11.85;;;;;;;20.95;62.70;100415.63;4941093;28;97914;-89
2021/06/17 04:05:04;;;;;;;16.25;12.40;;;;;;;21.00;62.50;100417.00;4972646;28;98337;-85
2021/06/17 04:07:32;;;;;;;16.88;13.30;;;;;;;21.20;61.95;100418.09;4972651;28;96620;-89
2021/06/17 04:09:59;;;;;;;14.00;12.23;;;;;;;21.16;62.11;100413.97;4973157;28;96917;-86
2021/06/17 04:12:28;;;;;;;15.40;12.55;;;;;;;21.05;62.01;100413.94;4941296;28;101457;-84
2021/06/17 04:14:55;;;;;;;20.80;13.98;;;;;;;21.07;62.09;100413.84;4927237;28;101553;-88
2021/06/17 04:17:27;;;;;;;18.40;13.05;;;;;;;21.11;62.26;100413.47;4942165;28;97368;-87
2021/06/17 04:19:54;;;;;;;19.10;12.18;;;;;;;21.09;62.21;100406.56;4952271;28;96919;-91
2021/06/17 04:22:20;;;;;;;15.55;12.52;;;;;;;21.25;61.66;100420.44;4946189;28;98042;-91
2021/06/17 04:24:56;;;;;;;16.38;13.02;;;;;;;21.28;61.79;100414.00;4956827;28;101754;-91
2021/06/17 04:27:22;;;;;;;22.70;14.57;;;;;;;21.52;61.04;100409.44;4948693;28;97688;-87
2021/06/17 04:29:52;;;;;;;17.27;13.65;;;;;;;21.55;60.69;100413.69;4960158;28;96881;-85
